Flight Track Log - Related Links

Times and Time Zones

All times are in EDT time to prevent confusion due to time zone crossing. See the SWA34 flight status page for this flight to view local times or setup timezone preferences in your user account.

Time Position Orientation Groundspeed Altitude Reporting Facility
EDT Latitude Longitude Course Direction KTS MPH feet Rate Location/Type
Mon 08:31:27 AM 30.5003 -81.6317 83° East 223 257 3,200  Level Jacksonville Center
Mon 08:32:27 AM 30.5756 -81.6211 North 239 275 6,100 3,050 Climbing Jacksonville Center
Mon 08:33:27 AM 30.6567 -81.6103 North 256 295 9,300 2,600 Climbing Jacksonville Center
Mon 08:34:27 AM 30.7444 -81.5969 North 291 335 11,300 2,250 Climbing Jacksonville Center
Mon 08:35:27 AM 30.8422 -81.5836 North 327 376 13,800 2,700 Climbing Jacksonville Center
Mon 08:36:27 AM 30.9464 -81.5531 14° North 361 415 16,700 2,500 Climbing Jacksonville Center
Mon 08:37:27 AM 31.0506 -81.5250 13° North 378 435 18,800 2,150 Climbing Jacksonville Center
Mon 08:38:27 AM 31.1608 -81.4942 13° North 384 442 21,000 2,100 Climbing Jacksonville Center
Mon 08:39:27 AM 31.2711 -81.4608 14° North 395 455 23,000 1,950 Climbing Jacksonville Center
Mon 08:40:27 AM 31.3833 -81.4253 15° North 406 467 24,900 1,850 Climbing Jacksonville Center
Mon 08:41:27 AM 31.5103 -81.3792 17° North 423 487 26,700 1,500 Climbing Jacksonville Center
Mon 08:42:27 AM 31.6094 -81.2922 37° Northeast 436 502 27,900 1,250 Climbing Jacksonville Center
Mon 08:43:27 AM 31.7106 -81.1953 39° Northeast 459 528 29,200 1,350 Climbing Jacksonville Center
Mon 08:44:27 AM 31.8114 -81.1006 39° Northeast 465 535 30,600 1,500 Climbing Jacksonville Center
Mon 08:45:27 AM 31.9000 -81.0133 40° Northeast 465 535 32,200 1,600 Climbing Jacksonville Center
Mon 08:46:27 AM 32.0133 -80.9106 38° Northeast 465 535 33,800 1,400 Climbing Jacksonville Center
Mon 08:47:27 AM 32.1017 -80.8250 39° Northeast 465 535 35,000 1,200 Climbing Jacksonville Center
Mon 08:48:27 AM 32.1981 -80.7297 40° Northeast 459 528 36,200 1,000 Climbing Jacksonville Center
Mon 08:49:27 AM 32.2967 -80.6364 39° Northeast 454 522 37,000 400 Climbing Jacksonville Center
Mon 08:50:27 AM 32.3953 -80.5431 39° Northeast 454 522 37,000  Level Jacksonville Center
Mon 08:51:27 AM 32.4936 -80.4467 40° Northeast 454 522 37,000  Level Jacksonville Center
Mon 08:52:27 AM 32.5919 -80.3506 39° Northeast 454 522 37,000  Level Jacksonville Center
Mon 08:53:27 AM 32.6903 -80.2564 39° Northeast 454 522 37,000  Level Jacksonville Center
Mon 08:54:27 AM 32.7883 -80.1597 40° Northeast 454 522 37,000  Level Jacksonville Center
Mon 08:55:27 AM 32.8864 -80.0628 40° Northeast 454 522 37,000  Level Jacksonville Center
Mon 08:56:27 AM 32.9906 -79.9603 40° Northeast 460 529 37,000  Level Jacksonville Center
Mon 08:57:27 AM 33.0886 -79.8678 38° Northeast 460 529 37,000  Level Jacksonville Center
Mon 08:58:27 AM 33.1883 -79.7703 39° Northeast 460 529 37,000  Level Jacksonville Center
Mon 08:59:27 AM 33.2881 -79.6697 40° Northeast 460 529 37,000  Level Jacksonville Center
Mon 09:00:27 AM 33.3878 -79.5717 39° Northeast 460 529 37,000  Level Jacksonville Center
Mon 09:01:27 AM 33.4875 -79.4733 39° Northeast 460 529 37,000  Level Jacksonville Center
Mon 09:02:27 AM 33.5869 -79.3722 40° Northeast 460 529 37,000 -600 Level Jacksonville Center
Mon 09:04:17 AM 33.7736 -79.1864 40° Northeast 458 527 35,300 -702 Descending Washington Center
Mon 09:05:18 AM 33.8747 -79.0833 40° Northeast 464 534 35,000 -149 Descending Washington Center
Mon 09:06:18 AM 33.9736 -78.9847 40° Northeast 464 534 35,000  Level Washington Center
Mon 09:07:16 AM 34.0764 -78.8839 39° Northeast 464 534 35,000  Level Washington Center
Mon 09:08:16 AM 34.1794 -78.7800 40° Northeast 464 534 35,000 -50 Level Washington Center
Mon 09:09:16 AM 34.2822 -78.6783 39° Northeast 469 540 34,900 -50 Descending Washington Center
Mon 09:10:17 AM 34.3850 -78.5717 41° Northeast 469 540 34,900 -350 Level Washington Center
Mon 09:11:16 AM 34.4939 -78.4797 35° Northeast 474 545 34,200 -807 Descending Washington Center
Mon 09:12:16 AM 34.6022 -78.3903 34° Northeast 480 552 33,300 -1,000 Descending Washington Center
Mon 09:13:16 AM 34.7108 -78.3031 33° Northeast 470 541 32,200 -942 Descending Washington Center
Mon 09:14:17 AM 34.7958 -78.2275 36° Northeast 470 541 31,400 -843 Descending Washington Center
Mon 09:15:17 AM 34.9128 -78.1222 36° Northeast 470 541 30,500 -942 Descending Washington Center
Mon 09:16:18 AM 35.0192 -78.0344 34° Northeast 470 541 29,500 -958 Descending Washington Center
Mon 09:17:16 AM 35.1294 -77.9436 34° Northeast 470 541 28,600 -966 Descending Washington Center
Mon 09:18:16 AM 35.2356 -77.8503 36° Northeast 470 541 27,600 -942 Descending Washington Center
Mon 09:19:17 AM 35.3414 -77.7614 34° Northeast 470 541 26,700 -1,041 Descending Washington Center
Mon 09:20:17 AM 35.4600 -77.6628 34° Northeast 475 547 25,500 -1,100 Descending Washington Center
Mon 09:21:17 AM 35.5658 -77.5733 34° Northeast 470 541 24,500 -942 Descending Washington Center
Mon 09:22:18 AM 35.6697 -77.4814 36° Northeast 464 534 23,600 -950 Descending Washington Center
Mon 09:23:17 AM 35.7711 -77.3969 34° Northeast 453 521 22,600 -1,059 Descending Washington Center
Mon 09:24:17 AM 35.8725 -77.3119 34° Northeast 448 516 21,500 -800 Descending Washington Center
Mon 09:25:17 AM 35.9717 -77.2269 35° Northeast 439 505 21,000 -248 Descending Washington Center
Mon 09:26:18 AM 36.0667 -77.1442 35° Northeast 433 498 21,000 -605 Level Washington Center
Mon 09:27:16 AM 36.1469 -77.0711 36° Northeast 421 484 19,800 -1,670 Descending Washington Center
Mon 09:28:13 AM 36.2417 -76.9931 34° Northeast 393 452 17,800 -1,983 Descending Washington Center
Mon 09:29:17 AM 36.3219 -76.9169 37° Northeast 392 451 15,800 -2,051 Descending Washington Center
Mon 09:29:32 AM 36.3533 -76.8919 33° Northeast 380 437 15,100 -2,000 Descending Washington Center
Mon 09:30:17 AM 36.4019 -76.8358 43° Northeast 379 436 13,800 -2,000 Descending Washington Center
Mon 09:30:32 AM 36.4275 -76.8078 41° Northeast 353 406 13,100 -1,800 Descending Washington Center
Mon 09:31:17 AM 36.4656 -76.7464 52° Northeast 355 409 12,000 -1,698 Descending Washington Center
Mon 09:32:18 AM 36.4978 -76.6408 69° East 335 386 10,100 -2,268 Descending Washington Center
Mon 09:32:39 AM 36.5231 -76.6078 46° Northeast 323 372 8,900 -2,200 Descending Washington Center
Mon 09:33:18 AM 36.5589 -76.5642 44° Northeast 324 373 7,900 -2,111 Descending Washington Center
Mon 09:33:33 AM 36.5819 -76.5411 39° Northeast 314 361 7,000 -2,172 Descending Washington Center
Mon 09:34:16 AM 36.6222 -76.4900 46° Northeast 312 359 5,800 -1,969 Descending Washington Center
Mon 09:34:37 AM 36.6431 -76.4669 42° Northeast 301 346 4,900 -1,900 Descending Washington Center
Mon 09:35:16 AM 36.6831 -76.4181 44° Northeast 302 348 3,900 -1,739 Descending Washington Center
Mon 09:35:46 AM 36.7167 -76.3822 41° Northeast 292 336 2,900 -1,574 Descending Washington Center
Mon 09:36:17 AM 36.7378 -76.3514 49° Northeast 290 334 2,300 -857 Descending Washington Center
Mon 09:36:42 AM 36.7692 -76.3256 33° Northeast 261 300 2,100 -197 Descending Washington Center
Mon 09:37:18 AM 36.7967 -76.2975 39° Northeast 277 319 2,100 -300 Level Washington Center
Mon 09:37:42 AM 36.8197 -76.2769 36° Northeast 214 246 1,800 -929 Descending Washington Center
Mon 09:38:42 AM 36.8572 -76.2408 38° Northeast 152 175 800 -1,000 Descending Washington Center

Login

Don't have an account? Register now (free) for customized features, flight alerts, and more!